Dauntless — AEGD — position and weather

sailwx.info

Track history (hours):
 
Tides and Currents Weather Stations Pressure Air Temp Water Temp Dewpoint Dewpoint Depression Visibility Wind Speed Wind Dir Waves Ship Positions

Dauntless

Last reported at 2017-Sep-18 19:56 UTC. Time now 2017-Sep-21 05:10 UTC.
Position N 39°34' W 075°35'.

Length 10 m.

Type: Dredging. MMSI: 366999309.

Date/timePositionNaut miles runAvg speedWind from/ knotsBaromVisibWave heightAir tempDewpointWater temp
2017-Sep-18 19:56N 39°34' W 075°35'715.6
2017-Sep-18 19:30N 39°40' W 075°32'918.4
2017-Sep-18 19:00N 39°48' W 075°25'0 0.4
2017-Sep-18 18:30N 39°48' W 075°26'0 0.4
2017-Sep-18 17:59N 39°48' W 075°25'0 0.4
2017-Sep-18 17:31N 39°48' W 075°26'0 0.3
2017-Sep-18 16:59N 39°48' W 075°25'0 0.2
2017-Sep-18 16:30N 39°48' W 075°25'1 1.3
2017-Sep-18 16:00N 39°48' W 075°26'917.2
2017-Sep-18 15:30N 39°40' W 075°32'712.5
2017-Sep-18 14:59N 39°34' W 075°35'  
2017-Sep-14 17:06N 39°34' W 075°35'0 0.0
2017-Sep-14 17:00N 39°34' W 075°35'612.0
2017-Sep-14 16:30N 39°33' W 075°43'1 1.7
2017-Sep-14 16:00N 39°32' W 075°44'0 0.8
2017-Sep-14 15:30N 39°33' W 075°44'0 0.3
2017-Sep-14 14:59N 39°32' W 075°44'2 3.5
2017-Sep-14 14:30N 39°33' W 075°42'612.5
2017-Sep-14 14:00N 39°34' W 075°34'0 0.7
2017-Sep-14 13:30N 39°34' W 075°34'0 1.0
2017-Sep-14 13:00N 39°34' W 075°33'2 3.1
2017-Sep-14 12:28N 39°34' W 075°35'0 0.0
2017-Sep-14 11:58N 39°34' W 075°35'0 0.0
2017-Sep-13 16:37N 39°34' W 075°35'0 0.4
2017-Sep-13 16:30N 39°34' W 075°35'2 3.4
2017-Sep-13 16:00N 39°34' W 075°33'0 0.2
2017-Sep-13 15:30N 39°34' W 075°33'0 0.2
2017-Sep-13 15:00N 39°34' W 075°33'0 0.4
2017-Sep-13 14:30N 39°34' W 075°33'1 1.4
2017-Sep-13 14:00N 39°34' W 075°34'1 2.6
2017-Sep-13 13:30N 39°34' W 075°35'0 0.0
2017-Sep-12 15:55N 39°34' W 075°35'2 4.4
2017-Sep-12 15:30N 39°34' W 075°33'0 0.2
2017-Sep-12 15:00N 39°34' W 075°33'0 0.2
2017-Sep-12 14:30N 39°34' W 075°33'0 0.4
2017-Sep-12 14:00N 39°34' W 075°33'0 0.2
2017-Sep-12 13:30N 39°34' W 075°33'0 0.1
2017-Sep-12 13:00N 39°34' W 075°33'2 4.2
2017-Sep-12 12:30N 39°35' W 075°35'0 0.0
2017-Sep-11 14:41N 39°34' W 075°35'0 0.0
2017-Sep-11 14:30N 39°34' W 075°35'0 1.0
2017-Sep-11 14:01N 39°35' W 075°35'1324.9
2017-Sep-11 13:30N 39°46' W 075°28'1326.3
2017-Sep-11 13:00N 39°52' W 075°13'  
Track history (hours):
 
Tides and Currents Weather Stations Pressure Air Temp Water Temp Dewpoint Dewpoint Depression Visibility Wind Speed Wind Dir Waves Ship Positions

Dauntless

Last reported at 2017-Sep-18 19:56 UTC. Time now 2017-Sep-21 05:10 UTC.
Position N 39°34' W 075°35'.

Length 10 m.

Type: Dredging. MMSI: 366999309.

Date/timePositionNaut miles runAvg speedWind from/ knotsBaromVisibWave heightAir tempDewpointWater temp
2017-Sep-18 19:56N 39°34' W 075°35'715.6
2017-Sep-18 19:30N 39°40' W 075°32'918.4
2017-Sep-18 19:00N 39°48' W 075°25'0 0.4
2017-Sep-18 18:30N 39°48' W 075°26'0 0.4
2017-Sep-18 17:59N 39°48' W 075°25'0 0.4
2017-Sep-18 17:31N 39°48' W 075°26'0 0.3
2017-Sep-18 16:59N 39°48' W 075°25'0 0.2
2017-Sep-18 16:30N 39°48' W 075°25'1 1.3
2017-Sep-18 16:00N 39°48' W 075°26'917.2
2017-Sep-18 15:30N 39°40' W 075°32'712.5
2017-Sep-18 14:59N 39°34' W 075°35'  
2017-Sep-14 17:06N 39°34' W 075°35'0 0.0
2017-Sep-14 17:00N 39°34' W 075°35'612.0
2017-Sep-14 16:30N 39°33' W 075°43'1 1.7
2017-Sep-14 16:00N 39°32' W 075°44'0 0.8
2017-Sep-14 15:30N 39°33' W 075°44'0 0.3
2017-Sep-14 14:59N 39°32' W 075°44'2 3.5
2017-Sep-14 14:30N 39°33' W 075°42'612.5
2017-Sep-14 14:00N 39°34' W 075°34'0 0.7
2017-Sep-14 13:30N 39°34' W 075°34'0 1.0
2017-Sep-14 13:00N 39°34' W 075°33'2 3.1
2017-Sep-14 12:28N 39°34' W 075°35'0 0.0
2017-Sep-14 11:58N 39°34' W 075°35'0 0.0
2017-Sep-13 16:37N 39°34' W 075°35'0 0.4
2017-Sep-13 16:30N 39°34' W 075°35'2 3.4
2017-Sep-13 16:00N 39°34' W 075°33'0 0.2
2017-Sep-13 15:30N 39°34' W 075°33'0 0.2
2017-Sep-13 15:00N 39°34' W 075°33'0 0.4
2017-Sep-13 14:30N 39°34' W 075°33'1 1.4
2017-Sep-13 14:00N 39°34' W 075°34'1 2.6
2017-Sep-13 13:30N 39°34' W 075°35'0 0.0
2017-Sep-12 15:55N 39°34' W 075°35'2 4.4
2017-Sep-12 15:30N 39°34' W 075°33'0 0.2
2017-Sep-12 15:00N 39°34' W 075°33'0 0.2
2017-Sep-12 14:30N 39°34' W 075°33'0 0.4
2017-Sep-12 14:00N 39°34' W 075°33'0 0.2
2017-Sep-12 13:30N 39°34' W 075°33'0 0.1
2017-Sep-12 13:00N 39°34' W 075°33'2 4.2
2017-Sep-12 12:30N 39°35' W 075°35'0 0.0
2017-Sep-11 14:41N 39°34' W 075°35'0 0.0
2017-Sep-11 14:30N 39°34' W 075°35'0 1.0
2017-Sep-11 14:01N 39°35' W 075°35'1324.9
2017-Sep-11 13:30N 39°46' W 075°28'1326.3
2017-Sep-11 13:00N 39°52' W 075°13'  

Dump ship's entire track history